createdAt,value
2022-12-20T00:01:26.556Z,12.74
2022-12-20T00:03:56.256Z,12.77
2022-12-20T00:06:24.567Z,12.79
2022-12-20T00:08:54.994Z,12.77
2022-12-20T00:11:22.122Z,12.83
2022-12-20T00:13:50.616Z,12.82
2022-12-20T00:16:20.222Z,12.83
2022-12-20T00:18:50.907Z,12.82
2022-12-20T00:21:17.944Z,12.86
2022-12-20T00:23:45.006Z,12.91
2022-12-20T00:26:15.370Z,12.93
2022-12-20T00:28:44.503Z,12.97
2022-12-20T00:31:17.180Z,12.98
2022-12-20T00:33:47.925Z,13.01
2022-12-20T00:36:17.139Z,13.06
2022-12-20T00:38:45.243Z,13.07
2022-12-20T00:41:14.689Z,13.09
2022-12-20T00:43:42.357Z,13.12
2022-12-20T00:46:13.067Z,13.12
2022-12-20T00:48:40.445Z,13.12
2022-12-20T00:51:11.439Z,13.10
2022-12-20T00:53:39.583Z,13.10
2022-12-20T00:56:08.060Z,13.14
2022-12-20T00:58:37.048Z,13.16
2022-12-20T01:01:05.065Z,13.21
2022-12-20T01:03:34.285Z,13.20
2022-12-20T01:06:02.695Z,13.22
2022-12-20T01:08:31.174Z,13.23
2022-12-20T01:11:00.939Z,13.26
2022-12-20T01:13:28.921Z,13.28
2022-12-20T01:15:56.289Z,13.31
2022-12-20T01:18:23.597Z,13.31
2022-12-20T01:21:02.579Z,13.30
2022-12-20T01:23:30.158Z,13.35
2022-12-20T01:25:59.358Z,13.35
2022-12-20T01:28:27.220Z,13.40
2022-12-20T01:30:54.319Z,13.46
2022-12-20T01:33:21.461Z,13.52
2022-12-20T01:35:58.342Z,13.56
2022-12-20T01:38:26.173Z,13.57
2022-12-20T01:40:53.786Z,13.53
2022-12-20T01:43:22.324Z,13.53
2022-12-20T01:45:49.679Z,13.52
2022-12-20T01:48:22.167Z,13.58
2022-12-20T01:50:53.458Z,13.63
2022-12-20T01:53:24.284Z,13.65
2022-12-20T01:55:51.519Z,13.69
2022-12-20T01:58:21.898Z,13.65
2022-12-20T02:00:49.350Z,13.74
2022-12-20T02:03:17.298Z,13.78
2022-12-20T02:05:46.734Z,13.78
2022-12-20T02:08:17.274Z,13.79
2022-12-20T02:11:08.372Z,13.79
2022-12-20T02:13:47.849Z,13.80
2022-12-20T02:16:25.209Z,13.86
2022-12-20T02:19:05.065Z,13.89
2022-12-20T02:21:39.497Z,13.90
2022-12-20T02:24:48.175Z,13.86
2022-12-20T02:27:41.180Z,13.88
2022-12-20T02:30:15.304Z,13.85
2022-12-20T02:32:50.081Z,13.89
2022-12-20T02:35:22.870Z,13.90
2022-12-20T02:37:53.290Z,13.94
2022-12-20T02:40:25.636Z,13.97
2022-12-20T02:42:59.229Z,14.01
2022-12-20T02:45:33.914Z,13.96
2022-12-20T02:48:07.703Z,13.94
2022-12-20T02:50:40.285Z,13.90
2022-12-20T02:53:09.837Z,13.93
2022-12-20T02:55:46.891Z,13.95
2022-12-20T02:58:26.127Z,13.90
2022-12-20T03:00:59.547Z,13.89
2022-12-20T03:03:26.696Z,13.88
2022-12-20T03:05:55.758Z,13.90
2022-12-20T03:08:23.916Z,13.93
2022-12-20T03:10:53.206Z,13.97
2022-12-20T03:13:21.115Z,14.00
2022-12-20T03:15:48.178Z,14.03
2022-12-20T03:18:16.549Z,14.07
2022-12-20T03:20:43.852Z,14.09
2022-12-20T03:23:11.137Z,14.09
2022-12-20T03:25:38.194Z,14.10
2022-12-20T03:28:05.157Z,14.09
2022-12-20T03:30:32.318Z,14.05
2022-12-20T03:32:59.323Z,14.05
2022-12-20T03:35:27.616Z,14.01
2022-12-20T03:37:55.561Z,14.04
2022-12-20T03:40:23.215Z,14.07
2022-12-20T03:42:50.191Z,14.10
2022-12-20T03:45:17.477Z,14.14
2022-12-20T03:47:44.645Z,14.21
2022-12-20T03:50:12.383Z,14.24
2022-12-20T03:52:40.753Z,14.27
2022-12-20T03:55:09.650Z,14.30
2022-12-20T03:57:36.687Z,14.30
2022-12-20T04:00:04.940Z,14.27
2022-12-20T04:02:32.191Z,14.28
2022-12-20T04:04:59.267Z,14.31
2022-12-20T04:07:26.233Z,14.33
2022-12-20T04:09:54.599Z,14.34
2022-12-20T04:12:21.553Z,14.35
2022-12-20T04:14:48.491Z,14.35
2022-12-20T04:17:15.728Z,14.32
2022-12-20T04:19:42.720Z,14.34
2022-12-20T04:22:10.059Z,14.37
2022-12-20T04:24:38.120Z,14.38
2022-12-20T04:27:06.497Z,14.40
2022-12-20T04:29:33.470Z,14.40
2022-12-20T04:32:00.542Z,14.41
2022-12-20T04:34:27.872Z,14.40
2022-12-20T04:36:54.885Z,14.40
2022-12-20T04:39:21.904Z,14.41
2022-12-20T04:41:48.968Z,14.42
2022-12-20T04:44:17.543Z,14.44
2022-12-20T04:46:44.568Z,14.42
2022-12-20T04:49:11.599Z,14.41
2022-12-20T04:51:38.524Z,14.38
2022-12-20T04:54:05.780Z,14.38
2022-12-20T04:56:32.965Z,14.36
2022-12-20T04:59:00.144Z,14.34
2022-12-20T05:01:28.628Z,14.31
2022-12-20T05:03:56.063Z,14.28
2022-12-20T05:06:23.070Z,14.34
2022-12-20T05:08:50.203Z,14.33
2022-12-20T05:11:17.706Z,14.36
2022-12-20T05:13:44.771Z,14.40
2022-12-20T05:16:12.099Z,14.41
2022-12-20T05:18:44.671Z,14.43
2022-12-20T05:21:34.582Z,14.44
2022-12-20T05:24:20.458Z,14.43
2022-12-20T05:26:47.487Z,14.41
2022-12-20T05:29:14.476Z,14.40
2022-12-20T05:31:41.735Z,14.33
2022-12-20T05:34:10.190Z,14.26
2022-12-20T05:36:37.239Z,14.20
2022-12-20T05:39:04.924Z,14.26
2022-12-20T05:41:32.163Z,14.22
2022-12-20T05:43:59.363Z,14.24
2022-12-20T05:46:26.499Z,14.24
2022-12-20T05:48:53.529Z,14.18
2022-12-20T05:51:21.951Z,14.22
2022-12-20T05:53:49.088Z,14.23
2022-12-20T05:56:16.186Z,14.29
2022-12-20T05:58:43.178Z,14.25
2022-12-20T06:01:10.516Z,14.26
2022-12-20T06:03:38.159Z,14.25
2022-12-20T06:06:13.623Z,14.24
2022-12-20T06:08:43.139Z,14.20
2022-12-20T06:11:10.400Z,14.28
2022-12-20T06:13:37.520Z,14.35
2022-12-20T06:16:05.170Z,14.31
2022-12-20T06:18:32.185Z,14.26
2022-12-20T06:20:59.379Z,14.23
2022-12-20T06:23:26.343Z,14.21
2022-12-20T06:25:55.165Z,14.19
2022-12-20T06:28:22.362Z,14.21
2022-12-20T06:30:53.743Z,14.19
2022-12-20T06:33:21.085Z,14.20
2022-12-20T06:35:50.349Z,14.16
2022-12-20T06:38:18.005Z,14.15
2022-12-20T06:40:45.319Z,14.17
2022-12-20T06:43:13.664Z,14.19
2022-12-20T06:45:42.076Z,14.21
2022-12-20T06:48:09.908Z,14.22
2022-12-20T06:50:37.656Z,14.22
2022-12-20T06:53:04.813Z,14.21
2022-12-20T06:55:31.860Z,14.13
2022-12-20T06:57:58.904Z,14.08
2022-12-20T07:00:27.519Z,14.10
2022-12-20T07:02:55.066Z,14.11
2022-12-20T07:05:22.545Z,14.11
2022-12-20T07:07:49.711Z,14.14
2022-12-20T07:10:17.241Z,14.18
2022-12-20T07:12:48.159Z,14.19
2022-12-20T07:15:16.032Z,14.14
2022-12-20T07:17:46.828Z,14.17
2022-12-20T07:20:15.048Z,14.16
2022-12-20T07:22:42.432Z,14.17
2022-12-20T07:25:11.278Z,14.22
2022-12-20T07:27:38.401Z,14.25
2022-12-20T07:30:07.476Z,14.26
2022-12-20T07:32:34.614Z,14.29
2022-12-20T07:35:02.945Z,14.32
2022-12-20T07:37:30.379Z,14.35
2022-12-20T07:39:57.454Z,14.41
2022-12-20T07:42:31.967Z,14.43
2022-12-20T07:45:02.744Z,14.45
2022-12-20T07:47:29.965Z,14.46
2022-12-20T07:49:57.004Z,14.49
2022-12-20T07:52:28.726Z,14.55
2022-12-20T07:55:02.609Z,14.55
2022-12-20T07:57:38.072Z,14.48
2022-12-20T08:00:08.653Z,14.45
2022-12-20T08:02:44.572Z,14.43
2022-12-20T08:05:12.472Z,14.46
2022-12-20T08:07:43.477Z,14.45
2022-12-20T08:10:14.245Z,14.41
2022-12-20T08:12:45.145Z,14.41
2022-12-20T08:15:13.230Z,14.43
2022-12-20T08:17:41.092Z,14.47
2022-12-20T08:20:10.197Z,14.46
2022-12-20T08:22:37.290Z,14.49
2022-12-20T08:25:07.435Z,14.52
2022-12-20T08:27:34.488Z,14.54
2022-12-20T08:30:01.495Z,14.59
2022-12-20T08:32:29.356Z,14.61
2022-12-20T08:34:56.465Z,14.65
2022-12-20T08:37:23.501Z,14.71
2022-12-20T08:39:50.533Z,14.72
2022-12-20T08:42:19.102Z,14.68
2022-12-20T08:44:46.292Z,14.71
2022-12-20T08:47:13.349Z,14.74
2022-12-20T08:49:47.214Z,14.84
2022-12-20T08:52:14.840Z,14.86
2022-12-20T08:54:41.838Z,14.86
2022-12-20T08:57:09.246Z,14.95
2022-12-20T08:59:37.585Z,14.98
2022-12-20T09:02:04.954Z,15.05
2022-12-20T09:04:32.287Z,15.06
2022-12-20T09:06:59.306Z,15.02
2022-12-20T09:09:26.491Z,15.07
2022-12-20T09:11:56.168Z,15.17
2022-12-20T09:14:23.901Z,15.18
2022-12-20T09:16:52.271Z,15.24
2022-12-20T09:19:19.259Z,15.28
2022-12-20T09:21:46.215Z,15.39
2022-12-20T09:24:13.131Z,15.42
2022-12-20T09:26:42.998Z,15.44
2022-12-20T09:29:12.847Z,15.49
2022-12-20T09:31:39.927Z,15.48
2022-12-20T09:34:10.078Z,15.48
2022-12-20T09:36:38.162Z,15.44
2022-12-20T09:39:05.189Z,15.50
2022-12-20T09:41:38.356Z,15.53
2022-12-20T09:44:15.319Z,15.55
2022-12-20T09:46:45.967Z,15.50
2022-12-20T09:49:19.108Z,15.48
2022-12-20T09:52:23.299Z,15.39
2022-12-20T09:55:13.633Z,15.36
2022-12-20T09:57:57.567Z,15.38
2022-12-20T10:00:24.717Z,15.45
2022-12-20T10:03:08.854Z,15.51
2022-12-20T10:05:49.359Z,15.52
2022-12-20T10:08:43.658Z,15.55
2022-12-20T10:11:51.068Z,15.52
2022-12-20T10:14:57.651Z,15.57
2022-12-20T10:17:49.780Z,15.49
2022-12-20T10:20:34.823Z,15.55
2022-12-20T10:23:15.311Z,15.66
2022-12-20T10:25:44.976Z,15.71
2022-12-20T10:28:18.906Z,15.72
2022-12-20T10:30:46.195Z,15.69
2022-12-20T10:33:22.078Z,15.71
2022-12-20T10:35:50.790Z,15.66
2022-12-20T10:38:22.850Z,15.72
2022-12-20T10:44:11.535Z,15.82
2022-12-20T10:46:43.544Z,15.85
2022-12-20T10:49:32.172Z,15.86
2022-12-20T10:52:15.321Z,15.87
2022-12-20T10:54:46.567Z,15.95
2022-12-20T10:57:21.496Z,15.98
2022-12-20T10:59:54.317Z,16.03
2022-12-20T11:02:34.941Z,16.05
2022-12-20T11:05:24.368Z,16.16
2022-12-20T11:10:51.844Z,16.27
2022-12-20T11:13:29.073Z,16.24
2022-12-20T11:16:01.525Z,16.27
2022-12-20T11:18:45.375Z,16.31
2022-12-20T11:21:31.054Z,16.21
2022-12-20T11:24:11.612Z,16.26
2022-12-20T11:27:15.609Z,16.28
2022-12-20T11:30:18.415Z,16.19
2022-12-20T11:33:30.412Z,16.15
2022-12-20T11:36:05.198Z,16.25
2022-12-20T11:38:42.530Z,16.22
2022-12-20T11:41:29.433Z,16.16
2022-12-20T11:44:25.725Z,16.04
2022-12-20T11:47:32.417Z,15.95
2022-12-20T11:50:32.687Z,15.89
2022-12-20T11:53:08.713Z,15.90
2022-12-20T11:55:41.711Z,15.88
2022-12-20T11:58:20.128Z,15.75
2022-12-20T12:00:56.859Z,16.32
2022-12-20T12:03:33.706Z,16.02
2022-12-20T12:06:07.123Z,15.93
2022-12-20T12:08:46.784Z,15.83
2022-12-20T12:12:03.824Z,15.82
2022-12-20T12:14:25.826Z,15.76
2022-12-20T12:17:05.174Z,15.76
2022-12-20T12:19:43.136Z,15.75
2022-12-20T12:22:21.871Z,15.75
2022-12-20T12:24:54.226Z,15.77
2022-12-20T12:27:27.390Z,15.86
2022-12-20T12:29:58.104Z,15.83
2022-12-20T12:32:33.037Z,15.83
2022-12-20T12:35:23.872Z,15.83
2022-12-20T12:38:09.227Z,15.78
2022-12-20T12:41:14.997Z,15.72
2022-12-20T12:43:50.077Z,15.69
2022-12-20T12:46:25.990Z,15.66
2022-12-20T12:49:01.663Z,15.67
2022-12-20T12:51:33.114Z,15.67
2022-12-20T12:54:21.901Z,15.59
2022-12-20T12:56:50.764Z,15.57
2022-12-20T12:59:51.722Z,15.48
2022-12-20T13:02:52.271Z,15.44
2022-12-20T13:05:37.043Z,15.43
2022-12-20T13:08:17.395Z,15.49
2022-12-20T13:11:01.741Z,15.49
2022-12-20T13:13:29.244Z,15.57
2022-12-20T13:16:13.968Z,15.54
2022-12-20T13:19:10.827Z,15.59
2022-12-20T13:21:43.825Z,15.58
2022-12-20T13:24:50.928Z,15.32
2022-12-20T13:27:45.309Z,15.29
2022-12-20T13:30:28.563Z,15.36
2022-12-20T13:33:24.794Z,15.29
2022-12-20T13:36:25.536Z,15.32
2022-12-20T13:38:58.678Z,15.28
2022-12-20T13:41:44.310Z,15.23
2022-12-20T13:44:40.052Z,15.21
2022-12-20T13:47:28.349Z,15.18
2022-12-20T13:49:59.571Z,15.21
2022-12-20T13:52:31.320Z,15.21
2022-12-20T13:55:07.868Z,15.21
2022-12-20T13:57:44.762Z,15.13
2022-12-20T14:00:18.672Z,15.11
2022-12-20T14:02:46.142Z,15.11
2022-12-20T14:05:21.614Z,15.12
2022-12-20T14:07:58.520Z,15.11
2022-12-20T14:10:29.934Z,15.14
2022-12-20T14:12:58.249Z,15.16
2022-12-20T14:15:30.005Z,15.18
2022-12-20T14:17:57.865Z,15.20
2022-12-20T14:20:31.710Z,15.21
2022-12-20T14:23:05.918Z,15.23
2022-12-20T14:25:43.081Z,15.24
2022-12-20T14:28:29.745Z,15.23
2022-12-20T14:31:00.153Z,15.27
2022-12-20T14:33:34.250Z,15.31
2022-12-20T14:36:16.493Z,15.34
2022-12-20T14:38:46.548Z,15.33
2022-12-20T14:41:39.406Z,15.32
2022-12-20T14:44:20.300Z,15.36
2022-12-20T14:46:52.160Z,15.40
2022-12-20T14:49:28.068Z,15.38
2022-12-20T14:52:14.773Z,15.28
2022-12-20T14:57:42.911Z,15.34
2022-12-20T15:00:21.336Z,15.43
2022-12-20T15:02:59.369Z,15.45
2022-12-20T15:05:43.143Z,15.47
2022-12-20T15:08:12.377Z,15.45
2022-12-20T15:10:42.132Z,15.44
2022-12-20T15:13:16.027Z,15.45
2022-12-20T15:15:44.041Z,15.46
2022-12-20T15:18:18.253Z,15.52
2022-12-20T15:21:00.262Z,15.57
2022-12-20T15:23:27.435Z,15.66
2022-12-20T15:25:54.891Z,15.71
2022-12-20T15:28:26.172Z,15.71
2022-12-20T15:30:55.216Z,15.74
2022-12-20T15:33:25.821Z,15.73
2022-12-20T15:35:53.740Z,15.77
2022-12-20T15:38:40.948Z,15.76
2022-12-20T15:41:19.956Z,15.74
2022-12-20T15:43:51.505Z,15.78
2022-12-20T15:46:18.511Z,15.80
2022-12-20T15:48:45.525Z,15.76
2022-12-20T15:51:18.040Z,15.75
2022-12-20T15:53:45.319Z,15.72
2022-12-20T15:56:19.393Z,15.72
2022-12-20T15:58:49.568Z,15.68
2022-12-20T16:01:22.136Z,15.73
2022-12-20T16:03:49.579Z,15.78
2022-12-20T16:06:17.144Z,15.84
2022-12-20T16:08:46.594Z,15.91
2022-12-20T16:11:21.928Z,15.86
2022-12-20T16:13:51.429Z,15.81
2022-12-20T16:16:21.612Z,15.83
2022-12-20T16:18:51.488Z,15.75
2022-12-20T16:21:21.898Z,15.75
2022-12-20T16:23:53.157Z,15.77
2022-12-20T16:26:23.412Z,15.81
2022-12-20T16:28:54.077Z,15.80
2022-12-20T16:31:27.795Z,15.84
2022-12-20T16:33:55.908Z,15.83
2022-12-20T16:36:24.111Z,15.72
2022-12-20T16:38:52.342Z,15.71
2022-12-20T16:41:23.891Z,15.70
2022-12-20T16:43:52.170Z,15.65
2022-12-20T16:46:22.097Z,15.59
2022-12-20T16:48:49.774Z,15.60
2022-12-20T16:51:24.995Z,15.62
2022-12-20T16:56:40.790Z,15.61
2022-12-20T16:59:19.167Z,15.59
2022-12-20T17:01:49.288Z,15.56
2022-12-20T17:04:18.980Z,15.59
2022-12-20T17:06:46.626Z,15.57
2022-12-20T17:11:58.911Z,15.59
2022-12-20T17:14:27.195Z,15.63
2022-12-20T17:16:54.363Z,15.68
2022-12-20T17:19:21.637Z,15.73
2022-12-20T17:24:34.146Z,15.79
2022-12-20T17:27:01.262Z,15.77
2022-12-20T17:29:29.976Z,15.78
2022-12-20T17:31:58.693Z,15.78
2022-12-20T17:34:30.821Z,15.74
2022-12-20T17:36:58.634Z,15.69
2022-12-20T17:39:26.411Z,15.60
2022-12-20T17:41:55.696Z,15.54
2022-12-20T17:44:25.303Z,15.52
2022-12-20T17:46:54.970Z,15.52
2022-12-20T17:49:25.490Z,15.52
2022-12-20T17:51:52.978Z,15.56
2022-12-20T17:54:26.871Z,15.59
2022-12-20T17:56:54.889Z,15.59
2022-12-20T17:59:22.446Z,15.56
2022-12-20T18:01:49.870Z,15.61
2022-12-20T18:04:18.452Z,15.57
2022-12-20T18:06:46.154Z,15.56
2022-12-20T18:09:15.919Z,15.63
2022-12-20T18:11:43.593Z,15.66
2022-12-20T18:14:11.681Z,15.64
2022-12-20T18:16:39.545Z,15.65
2022-12-20T18:19:08.453Z,15.67
2022-12-20T18:21:36.752Z,15.70
2022-12-20T18:24:05.678Z,15.76
2022-12-20T18:26:33.510Z,15.75
2022-12-20T18:29:02.565Z,15.73
2022-12-20T18:31:32.455Z,15.74
2022-12-20T18:34:01.070Z,15.78
2022-12-20T18:36:30.367Z,15.69
2022-12-20T18:39:00.818Z,15.68
2022-12-20T18:41:30.038Z,15.65
2022-12-20T18:43:59.131Z,15.63
2022-12-20T18:46:26.713Z,15.64
2022-12-20T18:48:56.318Z,15.63
2022-12-20T18:51:26.305Z,15.63
2022-12-20T18:53:55.885Z,15.64
2022-12-20T18:56:28.579Z,15.64
2022-12-20T18:59:03.016Z,15.65
2022-12-20T19:01:35.972Z,15.67
2022-12-20T19:04:05.794Z,15.66
2022-12-20T19:06:33.201Z,15.65
2022-12-20T19:09:00.882Z,15.60
2022-12-20T19:11:29.268Z,15.62
2022-12-20T19:13:56.589Z,15.56
2022-12-20T19:16:26.557Z,15.55
2022-12-20T19:18:53.986Z,15.55
2022-12-20T19:21:26.790Z,15.55
2022-12-20T19:23:56.834Z,15.54
2022-12-20T19:26:27.122Z,15.50
2022-12-20T19:28:55.964Z,15.47
2022-12-20T19:31:26.213Z,15.47
2022-12-20T19:33:55.808Z,15.47
2022-12-20T19:36:25.783Z,15.44
2022-12-20T19:38:56.535Z,15.38
2022-12-20T19:41:25.810Z,15.41
2022-12-20T19:43:52.979Z,15.41
2022-12-20T19:46:28.431Z,15.39
2022-12-20T19:48:58.208Z,15.42
2022-12-20T19:51:26.506Z,15.42
2022-12-20T19:53:55.861Z,15.47
2022-12-20T19:56:25.548Z,15.47
2022-12-20T19:58:53.682Z,15.48
2022-12-20T20:01:25.680Z,15.47
2022-12-20T20:03:53.763Z,15.46
2022-12-20T20:06:21.537Z,15.46
2022-12-20T20:08:49.680Z,15.45
2022-12-20T20:11:18.856Z,15.45
2022-12-20T20:13:46.350Z,15.43
2022-12-20T20:16:18.414Z,15.42
2022-12-20T20:18:50.734Z,15.41
2022-12-20T20:21:23.258Z,15.39
2022-12-20T20:23:52.530Z,15.42
2022-12-20T20:26:23.326Z,15.43
2022-12-20T20:28:51.334Z,15.40
2022-12-20T20:31:19.825Z,15.41
2022-12-20T20:33:47.115Z,15.42
2022-12-20T20:36:18.054Z,15.41
2022-12-20T20:38:46.172Z,15.38
2022-12-20T20:41:14.028Z,15.40
2022-12-20T20:43:41.814Z,15.41
2022-12-20T20:46:13.218Z,15.40
2022-12-20T20:48:41.221Z,15.42
2022-12-20T20:51:08.444Z,15.44
2022-12-20T20:53:36.922Z,15.43
2022-12-20T20:56:05.737Z,15.40
2022-12-20T20:58:33.269Z,15.40
2022-12-20T21:01:04.126Z,15.34
2022-12-20T21:03:32.271Z,15.29
2022-12-20T21:06:34.954Z,15.24
2022-12-20T21:08:47.848Z,15.23
2022-12-20T21:11:15.041Z,15.23
2022-12-20T21:13:42.007Z,15.28
2022-12-20T21:16:11.655Z,15.34
2022-12-20T21:18:38.636Z,15.37
2022-12-20T21:21:08.213Z,15.39
2022-12-20T21:23:35.158Z,15.39
2022-12-20T21:26:03.897Z,15.37
2022-12-20T21:28:31.578Z,15.38
2022-12-20T21:31:00.021Z,15.37
2022-12-20T21:33:27.558Z,15.38
2022-12-20T21:36:02.717Z,15.34
2022-12-20T21:38:30.246Z,15.34
2022-12-20T21:41:01.455Z,15.31
2022-12-20T21:43:30.031Z,15.31
2022-12-20T21:45:57.356Z,15.29
2022-12-20T21:48:25.942Z,15.31
2022-12-20T21:51:01.158Z,15.30
2022-12-20T21:53:28.544Z,15.28
2022-12-20T21:55:56.469Z,15.29
2022-12-20T21:58:24.243Z,15.28
2022-12-20T22:00:55.796Z,15.30
2022-12-20T22:03:24.700Z,15.33
2022-12-20T22:05:54.364Z,15.31
2022-12-20T22:08:23.144Z,15.28
2022-12-20T22:11:00.060Z,15.22
2022-12-20T22:13:27.882Z,15.19
2022-12-20T22:15:56.677Z,15.17
2022-12-20T22:18:24.502Z,15.10
2022-12-20T22:20:51.771Z,15.06
2022-12-20T22:23:18.695Z,15.04
2022-12-20T22:25:45.614Z,15.07
2022-12-20T22:28:12.798Z,15.09
2022-12-20T22:30:41.197Z,15.09
2022-12-20T22:33:09.732Z,15.07
2022-12-20T22:35:37.492Z,15.07
2022-12-20T22:38:05.250Z,15.12
2022-12-20T22:40:32.465Z,15.14
2022-12-20T22:42:59.382Z,15.12
2022-12-20T22:45:26.389Z,15.12
2022-12-20T22:47:53.320Z,15.11
2022-12-20T22:50:21.622Z,15.14
2022-12-20T22:52:48.489Z,15.18
2022-12-20T22:55:15.879Z,15.18
2022-12-20T22:57:42.834Z,15.16
2022-12-20T23:00:13.049Z,15.16
2022-12-20T23:02:40.822Z,15.17
2022-12-20T23:05:09.398Z,15.18
2022-12-20T23:07:37.635Z,15.18
2022-12-20T23:10:25.693Z,15.17
2022-12-20T23:13:27.958Z,15.15
2022-12-20T23:15:54.840Z,15.13
2022-12-20T23:18:21.736Z,15.13
2022-12-20T23:21:22.197Z,15.13
2022-12-20T23:23:55.710Z,15.10
2022-12-20T23:26:23.361Z,15.10
2022-12-20T23:28:50.969Z,15.13
2022-12-20T23:31:17.923Z,15.14
2022-12-20T23:33:44.894Z,15.13
2022-12-20T23:36:12.306Z,15.15
2022-12-20T23:38:39.700Z,15.14
2022-12-20T23:41:10.447Z,15.13
2022-12-20T23:43:38.307Z,15.18
2022-12-20T23:46:09.054Z,15.21
2022-12-20T23:48:36.397Z,15.23
2022-12-20T23:51:04.237Z,15.25
2022-12-20T23:53:31.665Z,15.26
2022-12-20T23:56:02.131Z,15.32
2022-12-20T23:58:30.811Z,15.39
